Terminal Aerodrome Forecast
Issued by NWS

Home | Current Version | Previous Version | Text Only | Print | Product List | Glossary On
Versions: 1 2 3 4 5 6 7 8 9 10 11 12 13 14 15 16 17 18
000
FTUS43 KILX 011723
TAFBMI
TAF
KBMI 011723Z 0118/0218 20010KT P6SM SCT050
     FM020100 21007KT P6SM SCT080
      TEMPO 0208/0212 4SM BR=

USA.gov is the U.S. government's official web portal to all federal, state and local government web resources and services.